Time;durP1;ratioP1;P1;durP2;ratioP2;P2;SDS_P1;SDS_P2;PMS_P1;PMS_P2;Temp;Humidity;BMP_temperature;BMP_pressure;BME280_temperature;BME280_humidity;BME280_pressure;Samples;Min_cycle;Max_cycle;Signal;HPM_P1;HPM_P2
2022/05/29 00:02:26;;;;;;;6.90;2.90;;;;;;;11.54;64.00;100076.88;110046;1259;23652;-77
2022/05/29 00:04:55;;;;;;;7.90;3.10;;;;;;;11.54;64.18;100076.57;109964;1260;24260;-77
2022/05/29 00:07:24;;;;;;;7.50;3.30;;;;;;;11.54;64.24;100076.13;109980;1259;21969;-77
2022/05/29 00:09:53;;;;;;;4.60;2.60;;;;;;;11.52;64.19;100076.03;109871;1259;22009;-77
2022/05/29 00:12:25;;;;;;;4.70;2.40;;;;;;;11.50;64.11;100080.59;109815;1261;23775;-77
2022/05/29 00:14:54;;;;;;;4.00;2.40;;;;;;;11.47;64.29;100079.64;109977;1261;22035;-77
2022/05/29 00:17:23;;;;;;;5.70;2.60;;;;;;;11.43;64.38;100078.89;109336;1258;23730;-77
2022/05/29 00:19:53;;;;;;;5.80;2.70;;;;;;;11.43;64.47;100080.13;109813;1258;22032;-78
2022/05/29 00:22:23;;;;;;;4.60;2.70;;;;;;;11.43;64.41;100083.30;110013;1260;22436;-78
2022/05/29 00:24:52;;;;;;;7.30;3.20;;;;;;;11.42;64.40;100083.73;110060;1260;21986;-77
2022/05/29 00:27:24;;;;;;;6.60;3.20;;;;;;;11.43;64.44;100083.30;110265;1258;21990;-78
2022/05/29 00:29:53;;;;;;;8.10;3.20;;;;;;;11.43;64.44;100075.92;109857;1258;23668;-78
2022/05/29 00:32:24;;;;;;;6.90;2.90;;;;;;;11.45;64.54;100071.80;110151;1258;21963;-77
2022/05/29 00:34:56;;;;;;;7.00;2.90;;;;;;;11.47;64.61;100067.28;110177;1253;21954;-77
2022/05/29 00:37:34;;;;;;;5.20;2.50;;;;;;;11.50;64.56;100065.94;110715;1253;22321;-77
2022/05/29 00:40:26;;;;;;;5.30;2.50;;;;;;;11.50;64.49;100063.09;110700;1253;24268;-77
2022/05/29 00:42:55;;;;;;;8.20;3.10;;;;;;;11.48;64.37;100065.05;110537;1253;21925;-77
2022/05/29 00:45:33;;;;;;;6.20;3.00;;;;;;;11.46;64.38;100064.95;110521;1253;23024;-78
2022/05/29 00:48:04;;;;;;;7.70;3.80;;;;;;;11.43;64.26;100060.42;110058;1259;21973;-78
2022/05/29 00:52:51;;;;;;;6.80;2.60;;;;;;;11.36;64.36;100057.02;107334;1289;544297;-76
2022/05/29 00:55:31;;;;;;;6.30;3.20;;;;;;;11.33;64.37;100053.23;109239;1266;22082;-78
2022/05/29 00:58:04;;;;;;;5.40;2.60;;;;;;;11.35;64.53;100054.11;109333;1264;24292;-77
2022/05/29 01:00:34;;;;;;;7.00;2.90;;;;;;;11.36;64.47;100052.27;109325;1267;22018;-77
2022/05/29 01:03:05;;;;;;;8.70;3.10;;;;;;;11.35;64.38;100054.41;109356;1266;24893;-77
2022/05/29 01:05:36;;;;;;;8.30;2.50;;;;;;;11.36;64.41;100050.66;109702;1260;239446;-77
2022/05/29 01:08:19;;;;;;;8.70;2.40;;;;;;;11.37;64.51;100049.70;109727;1260;21983;-78
2022/05/29 01:10:52;;;;;;;6.40;2.90;;;;;;;11.36;64.53;100049.98;109413;1265;21971;-77
2022/05/29 01:13:39;;;;;;;5.70;2.60;;;;;;;11.35;64.64;100048.13;109663;1263;24296;-78
2022/05/29 01:16:23;;;;;;;9.50;2.60;;;;;;;11.32;64.58;100048.16;110028;1262;23622;-77
2022/05/29 01:19:22;;;;;;;6.30;2.60;;;;;;;11.28;64.48;100049.66;109832;1261;21982;-77
2022/05/29 01:22:29;;;;;;;8.20;2.80;;;;;;;11.22;64.61;100050.30;109814;1263;23823;-78
2022/05/29 01:25:38;;;;;;;6.60;2.40;;;;;;;11.19;64.68;100049.20;110019;1260;21985;-77
2022/05/29 01:28:53;;;;;;;7.10;2.60;;;;;;;11.18;64.70;100052.43;109642;1266;22077;-78
2022/05/29 01:31:56;;;;;;;4.80;2.50;;;;;;;11.18;64.94;100052.95;109872;1261;22425;-77
2022/05/29 01:34:43;;;;;;;6.40;2.70;;;;;;;11.17;64.82;100053.55;109982;1260;21978;-76
2022/05/29 01:37:31;;;;;;;7.90;2.90;;;;;;;11.19;64.86;100052.04;109207;1266;23058;-77
2022/05/29 01:40:14;;;;;;;8.30;2.60;;;;;;;11.23;64.85;100052.02;109228;1267;22905;-78
2022/05/29 01:42:54;;;;;;;7.60;2.50;;;;;;;11.24;64.79;100049.55;109333;1265;22532;-78
2022/05/29 01:45:55;;;;;;;11.00;3.60;;;;;;;11.25;64.78;100052.48;108848;1270;21986;-78
2022/05/29 01:48:59;;;;;;;8.80;3.20;;;;;;;11.21;64.71;100052.76;109312;1267;23695;-78
2022/05/29 01:51:39;;;;;;;8.40;2.80;;;;;;;11.14;64.88;100052.83;108959;1270;21993;-77
2022/05/29 01:54:30;;;;;;;6.40;2.60;;;;;;;11.13;64.82;100048.59;108809;1272;23050;-77
2022/05/29 01:57:16;;;;;;;9.30;3.10;;;;;;;11.11;64.80;100043.52;108970;1270;22030;-77
2022/05/29 02:00:10;;;;;;;5.90;2.40;;;;;;;11.10;64.84;100043.60;109401;1263;23697;-79
2022/05/29 02:03:11;;;;;;;6.60;2.90;;;;;;;11.10;64.76;100042.08;109596;1260;23038;-78
2022/05/29 02:05:49;;;;;;;9.80;3.40;;;;;;;11.10;64.99;100044.52;110173;1257;21962;-78
2022/05/29 02:08:44;;;;;;;9.60;2.70;;;;;;;11.12;64.95;100044.96;110277;1257;22059;-77
2022/05/29 02:11:21;;;;;;;7.90;3.30;;;;;;;11.14;65.02;100046.91;110261;1258;23050;-77
2022/05/29 02:14:14;;;;;;;5.60;2.90;;;;;;;11.15;64.95;100044.33;110031;1260;23097;-77
2022/05/29 02:16:52;;;;;;;10.60;2.80;;;;;;;11.14;64.90;100044.77;110023;1260;23704;-78
2022/05/29 02:19:40;;;;;;;6.50;3.20;;;;;;;11.11;64.88;100046.67;110326;1258;22025;-78
2022/05/29 02:22:17;;;;;;;8.20;2.90;;;;;;;11.06;64.84;100044.59;110172;1259;21980;-78
2022/05/29 02:25:10;;;;;;;6.20;3.10;;;;;;;11.00;64.91;100042.86;109790;1260;23691;-79
2022/05/29 02:28:06;;;;;;;11.30;3.70;;;;;;;10.95;65.05;100041.74;110232;1257;23602;-78
2022/05/29 02:30:49;;;;;;;9.10;3.90;;;;;;;10.92;65.08;100043.79;110728;1254;23795;-79
2022/05/29 02:34:16;;;;;;;8.00;2.80;;;;;;;10.90;65.04;100039.14;110595;1254;21977;-78
2022/05/29 02:37:17;;;;;;;5.30;3.10;;;;;;;10.86;65.25;100039.98;110331;1257;21966;-77
2022/05/29 02:40:08;;;;;;;6.30;2.60;;;;;;;10.81;65.41;100040.27;110352;1257;23590;-77
2022/05/29 02:43:20;;;;;;;6.20;3.40;;;;;;;10.79;65.47;100040.80;110199;1258;23596;-77
2022/05/29 02:46:34;;;;;;;8.30;3.00;;;;;;;10.77;65.60;100048.28;110320;1260;22991;-78
2022/05/29 02:49:18;;;;;;;6.40;3.30;;;;;;;10.73;65.60;100048.55;110277;1259;23780;-78
2022/05/29 02:52:14;;;;;;;10.50;3.40;;;;;;;10.71;65.63;100049.88;110391;1257;21978;-78
2022/05/29 02:54:43;;;;;;;7.00;2.70;;;;;;;10.69;65.67;100054.19;110349;1256;21972;-77
2022/05/29 02:57:18;;;;;;;5.80;2.50;;;;;;;10.65;65.73;100052.01;110329;1257;21976;-77
2022/05/29 02:59:54;;;;;;;6.90;2.50;;;;;;;10.64;65.91;100050.73;109737;1263;22208;-77
2022/05/29 03:02:36;;;;;;;6.20;2.40;;;;;;;10.62;65.96;100056.18;109593;1263;21981;-77
2022/05/29 03:05:32;;;;;;;6.30;2.50;;;;;;;10.59;65.90;100057.91;109693;1263;22170;-78
2022/05/29 03:08:31;;;;;;;7.90;2.90;;;;;;;10.53;65.93;100058.98;109595;1263;22016;-78
2022/05/29 03:11:30;;;;;;;10.90;3.00;;;;;;;10.47;66.02;100059.73;109010;1267;23114;-78
2022/05/29 03:14:12;;;;;;;5.40;3.10;;;;;;;10.41;66.06;100066.94;109249;1264;21982;-79
2022/05/29 03:17:31;;;;;;;6.60;2.80;;;;;;;10.36;66.12;100068.67;109024;1270;22042;-77
2022/05/29 03:20:45;;;;;;;5.60;2.90;;;;;;;10.31;66.08;100066.23;109253;1267;21980;-77
2022/05/29 03:23:57;;;;;;;7.80;3.00;;;;;;;10.26;66.15;100071.38;109228;1267;22005;-77
2022/05/29 03:27:02;;;;;;;7.20;2.80;;;;;;;10.22;66.15;100072.48;109344;1267;21983;-77
2022/05/29 03:29:42;;;;;;;6.70;3.00;;;;;;;10.19;66.07;100078.14;109312;1270;22789;-78
2022/05/29 03:32:14;;;;;;;8.10;2.70;;;;;;;10.19;66.10;100076.20;109242;1269;23628;-78
2022/05/29 03:34:43;;;;;;;7.20;3.00;;;;;;;10.20;66.25;100074.31;109250;1263;22197;-78
2022/05/29 03:37:16;;;;;;;5.60;2.50;;;;;;;10.22;66.10;100074.40;109698;1264;23666;-78
2022/05/29 03:39:45;;;;;;;6.70;2.70;;;;;;;10.23;65.97;100075.39;109681;1263;22019;-80
2022/05/29 03:42:17;;;;;;;;;;;;;;;10.25;66.06;100073.98;109618;1265;21958;-78
2022/05/29 03:44:48;;;;;;;9.10;3.00;;;;;;;10.17;66.08;100079.58;109328;1265;23051;-78
2022/05/29 03:47:27;;;;;;;7.30;3.00;;;;;;;10.17;66.22;100082.64;109502;1251;23567;-78
2022/05/29 03:50:02;;;;;;;6.30;3.20;;;;;;;10.18;66.20;100077.88;110637;1251;21977;-78
2022/05/29 03:52:36;;;;;;;7.10;4.00;;;;;;;10.18;66.08;100082.87;110733;1254;22969;-78
2022/05/29 03:55:11;;;;;;;6.50;2.70;;;;;;;10.14;66.17;100081.26;110949;1250;21931;-78
2022/05/29 03:57:43;;;;;;;8.70;3.20;;;;;;;10.13;66.16;100079.61;110992;1250;21966;-78
2022/05/29 04:00:16;;;;;;;7.50;2.70;;;;;;;10.15;66.30;100077.53;110814;1251;21964;-78
2022/05/29 04:02:48;;;;;;;9.00;3.40;;;;;;;10.20;66.45;100077.77;110872;1251;23583;-78
2022/05/29 04:05:22;;;;;;;7.80;3.20;;;;;;;10.28;66.55;100079.60;110883;1251;23026;-78
2022/05/29 04:13:40;;;;;;;9.40;2.80;;;;;;;10.51;66.55;100091.80;110977;1250;23703;-78
2022/05/29 04:16:10;;;;;;;6.20;3.70;;;;;;;10.58;66.45;100091.20;110902;1250;24502;-78
2022/05/29 04:18:40;;;;;;;7.80;3.20;;;;;;;10.65;66.19;100090.55;110755;1252;22007;-78
2022/05/29 04:21:10;;;;;;;9.00;3.40;;;;;;;10.72;66.12;100091.69;110762;1251;23121;-78
2022/05/29 04:23:39;;;;;;;9.30;3.00;;;;;;;10.80;66.14;100091.70;110832;1251;21979;-78
2022/05/29 04:26:08;;;;;;;8.60;3.50;;;;;;;10.87;65.89;100088.22;110937;1250;23745;-78
2022/05/29 04:28:37;;;;;;;8.00;2.80;;;;;;;10.90;65.63;100084.23;110638;1251;21976;-78
2022/05/29 04:31:06;;;;;;;5.10;2.50;;;;;;;10.93;65.76;100082.07;110305;1257;21972;-78
2022/05/29 04:33:36;;;;;;;10.10;3.30;;;;;;;11.01;65.58;100081.52;110141;1257;21968;-78
2022/05/29 04:36:06;;;;;;;6.10;2.50;;;;;;;11.06;65.26;100082.30;110221;1257;22756;-78
2022/05/29 04:38:35;;;;;;;11.80;3.10;;;;;;;11.14;65.24;100083.36;110136;1256;22084;-77
2022/05/29 04:41:09;;;;;;;6.20;2.30;;;;;;;11.24;65.06;100089.09;110156;1258;22585;-78
2022/05/29 04:43:38;;;;;;;7.20;2.90;;;;;;;11.31;64.62;100085.95;110156;1257;23686;-78
2022/05/29 04:46:08;;;;;;;5.80;2.70;;;;;;;11.37;64.39;100087.41;110362;1257;23048;-78
2022/05/29 04:48:43;;;;;;;5.90;2.80;;;;;;;11.41;64.04;100086.42;110426;1251;23620;-78
2022/05/29 04:51:14;;;;;;;;;;;;;;;11.46;63.94;100090.34;110919;1251;22731;-78
2022/05/29 04:53:44;;;;;;;7.90;3.00;;;;;;;11.45;63.99;100087.81;110618;1250;21968;-78
2022/05/29 04:56:13;;;;;;;8.30;3.20;;;;;;;11.48;63.63;100088.67;110294;1257;23825;-78
2022/05/29 04:58:42;;;;;;;6.90;2.90;;;;;;;11.53;63.40;100088.70;110068;1257;22080;-78
2022/05/29 05:01:11;;;;;;;5.80;2.20;;;;;;;11.66;63.72;100087.34;110417;1257;22150;-78
2022/05/29 05:03:41;;;;;;;6.10;2.60;;;;;;;11.80;63.42;100085.64;110223;1257;21979;-77
2022/05/29 05:06:10;;;;;;;7.90;2.90;;;;;;;11.92;63.00;100087.48;110021;1258;22184;-78
2022/05/29 05:08:40;;;;;;;11.80;3.30;;;;;;;12.08;62.97;100089.09;110438;1256;22709;-77
2022/05/29 05:11:08;;;;;;;10.50;3.30;;;;;;;12.20;62.58;100090.20;110223;1257;22435;-78
2022/05/29 05:13:38;;;;;;;13.90;3.60;;;;;;;12.33;62.32;100090.06;109850;1257;21981;-78
2022/05/29 05:16:07;;;;;;;7.10;3.40;;;;;;;12.49;62.37;100088.14;109970;1262;21994;-78
2022/05/29 05:18:36;;;;;;;9.10;3.20;;;;;;;12.66;61.97;100093.26;109811;1260;21974;-79
2022/05/29 05:21:07;;;;;;;9.90;3.00;;;;;;;12.80;61.38;100091.40;109601;1263;23032;-77
2022/05/29 05:23:36;;;;;;;7.30;2.90;;;;;;;12.94;61.02;100089.53;109646;1263;21964;-77
2022/05/29 05:26:13;;;;;;;7.30;3.10;;;;;;;13.09;60.71;100086.98;109347;1260;22145;-77
2022/05/29 05:28:43;;;;;;;9.20;2.70;;;;;;;13.23;60.06;100086.27;108984;1268;21976;-78
2022/05/29 05:31:16;;;;;;;5.50;2.70;;;;;;;13.36;59.59;100084.75;109237;1264;21980;-78
2022/05/29 05:33:49;;;;;;;9.20;3.30;;;;;;;13.50;59.34;100084.13;109396;1259;22010;-76
2022/05/29 05:37:03;;;;;;;;;;;;;;;;;;;;;
2022/05/29 05:40:28;;;;;;;;;;;;;;;;;;;;;
2022/05/29 05:43:14;;;;;;;8.70;3.10;;;;;;;14.21;58.49;100089.66;109228;1264;23011;-76
2022/05/29 05:46:05;;;;;;;11.30;3.70;;;;;;;14.64;58.61;100092.59;109204;1260;23248;-78
2022/05/29 05:48:44;;;;;;;9.20;2.90;;;;;;;15.09;57.75;100089.27;110161;1260;23067;-77
2022/05/29 05:51:19;;;;;;;8.90;2.70;;;;;;;15.48;56.24;100089.77;110034;1257;21991;-78
2022/05/29 05:53:59;;;;;;;6.50;2.60;;;;;;;15.83;55.22;100090.40;110199;1257;22105;-78
2022/05/29 05:56:41;;;;;;;7.30;2.50;;;;;;;16.15;54.15;100091.46;109991;1257;21966;-78
2022/05/29 05:59:13;;;;;;;6.50;2.60;;;;;;;16.50;53.68;100091.46;110542;1253;22069;-79
2022/05/29 06:01:50;;;;;;;7.00;2.60;;;;;;;16.90;52.79;100089.14;110577;1253;21958;-79
2022/05/29 06:04:19;;;;;;;7.00;3.10;;;;;;;17.21;51.41;100090.44;110753;1253;21950;-80
2022/05/29 06:06:49;;;;;;;8.20;2.50;;;;;;;17.58;51.10;100093.94;110511;1253;22648;-78
2022/05/29 06:09:22;;;;;;;5.90;2.10;;;;;;;17.94;49.92;100100.02;110824;1251;21951;-78
2022/05/29 06:11:59;;;;;;;11.70;2.70;;;;;;;18.29;49.25;100097.92;110774;1250;22002;-80
2022/05/29 06:14:30;;;;;;;8.90;2.70;;;;;;;18.49;47.32;100097.44;110932;1250;23823;-80
2022/05/29 06:17:04;;;;;;;7.40;2.50;;;;;;;18.38;45.91;100096.92;110756;1253;21968;-79
2022/05/29 06:19:33;;;;;;;7.40;2.30;;;;;;;18.14;45.50;100104.23;110596;1250;23604;-79
2022/05/29 06:22:07;;;;;;;6.50;2.40;;;;;;;17.81;45.70;100105.00;110808;1250;21958;-79
2022/05/29 06:24:36;;;;;;;6.40;2.30;;;;;;;17.59;46.38;100101.20;110635;1251;23580;-78
2022/05/29 06:27:08;;;;;;;10.00;2.60;;;;;;;17.38;46.20;100105.45;110794;1251;23117;-77
2022/05/29 06:29:37;;;;;;;;;;;;;;;17.15;46.28;100105.30;110898;1251;23751;-78
2022/05/29 06:32:12;;;;;;;7.50;2.60;;;;;;;16.82;46.45;100107.12;110779;1250;23026;-78
2022/05/29 06:34:45;;;;;;;62.80;9.60;;;;;;;16.52;46.84;100111.48;111018;1250;22345;-75
2022/05/29 06:37:15;;;;;;;9.90;2.60;;;;;;;16.36;47.92;100113.79;110039;1257;21991;-76
2022/05/29 06:39:47;;;;;;;17.50;14.10;;;;;;;16.30;48.39;100114.86;110257;1259;22028;-79
2022/05/29 06:42:19;;;;;;;7.50;3.10;;;;;;;16.20;48.28;100113.67;109989;1260;21996;-77
2022/05/29 06:44:48;;;;;;;11.10;3.90;;;;;;;16.08;48.21;100115.30;109589;1260;22489;-77
2022/05/29 06:47:18;;;;;;;7.40;2.70;;;;;;;15.90;48.17;100116.49;109765;1260;21971;-78
2022/05/29 06:49:49;;;;;;;9.10;3.60;;;;;;;15.68;48.36;100122.45;109833;1260;21938;-79
2022/05/29 06:52:22;;;;;;;8.20;3.30;;;;;;;15.51;49.07;100126.96;109683;1260;23763;-79
2022/05/29 06:54:54;;;;;;;7.10;3.10;;;;;;;15.43;49.35;100125.73;109916;1256;22275;-79
2022/05/29 06:57:39;;;;;;;7.70;3.10;;;;;;;15.31;49.28;100126.11;110443;1256;21945;-80
2022/05/29 07:08:51;;;;;;;9.00;3.70;;;;;;;15.00;50.37;100134.53;110769;1251;21966;-80
2022/05/29 07:11:26;;;;;;;9.40;3.20;;;;;;;15.02;50.89;100130.86;110591;1251;23048;-79
2022/05/29 07:13:55;;;;;;;7.90;3.10;;;;;;;15.15;51.55;100128.59;110748;1251;21954;-79
2022/05/29 07:16:30;;;;;;;11.10;4.10;;;;;;;15.29;51.49;100128.11;110863;1250;21974;-79
2022/05/29 07:19:04;;;;;;;6.60;3.30;;;;;;;15.51;51.42;100129.26;111223;1250;23774;-80
2022/05/29 07:21:41;;;;;;;9.10;3.10;;;;;;;15.70;51.03;100130.83;110961;1251;23036;-80
2022/05/29 07:24:46;;;;;;;;;;;;;;;;;;;;;
2022/05/29 07:27:20;;;;;;;8.30;2.90;;;;;;;16.03;50.01;100131.59;111060;1249;23099;-79
2022/05/29 07:29:50;;;;;;;11.20;3.40;;;;;;;16.06;49.31;100132.28;110139;1258;21934;-80
2022/05/29 07:32:49;;;;;;;8.20;4.50;;;;;;;15.96;48.77;100137.30;110533;1256;22266;-80
2022/05/29 07:35:22;;;;;;;7.90;3.20;;;;;;;15.82;48.75;100137.41;110445;1256;21972;-81
2022/05/29 07:37:56;;;;;;;5.90;3.10;;;;;;;15.68;48.96;100135.58;110681;1257;22759;-79
2022/05/29 07:40:32;;;;;;;6.80;3.00;;;;;;;15.55;49.38;100136.54;110064;1256;21956;-80
2022/05/29 07:43:22;;;;;;;9.60;3.60;;;;;;;15.40;49.72;100137.00;110356;1258;21978;-80
2022/05/29 07:45:58;;;;;;;8.00;3.00;;;;;;;15.25;49.96;100142.34;110792;1256;21984;-79
2022/05/29 07:48:33;;;;;;;5.60;2.90;;;;;;;15.14;50.56;100145.86;110632;1251;21968;-79
2022/05/29 07:51:20;;;;;;;8.50;2.40;;;;;;;15.07;50.68;100146.58;110820;1251;23045;-79
2022/05/29 07:53:51;;;;;;;7.50;3.00;;;;;;;14.99;50.52;100143.66;110761;1251;23137;-77
2022/05/29 07:56:26;;;;;;;7.70;3.00;;;;;;;14.91;50.79;100138.20;110582;1251;22056;-80
2022/05/29 07:58:57;;;;;;;28.50;25.40;;;;;;;14.82;50.58;100137.85;111138;1252;21953;-80
2022/05/29 08:01:29;;;;;;;11.20;7.30;;;;;;;14.75;50.90;100139.91;110957;1250;21976;-80
2022/05/29 08:04:10;;;;;;;9.20;3.20;;;;;;;14.75;51.29;100139.95;110470;1257;23045;-80
2022/05/29 08:06:42;;;;;;;11.80;3.00;;;;;;;14.77;51.41;100146.42;109410;1264;22019;-81
2022/05/29 08:09:13;;;;;;;6.70;2.70;;;;;;;14.74;51.11;100146.74;109754;1263;21968;-81
2022/05/29 08:11:47;;;;;;;6.60;2.90;;;;;;;14.72;51.04;100143.88;109755;1263;23602;-79
2022/05/29 08:14:20;;;;;;;9.70;3.30;;;;;;;14.74;51.20;100146.00;109854;1263;22749;-79
2022/05/29 08:16:55;;;;;;;10.80;3.60;;;;;;;14.80;51.31;100145.00;109683;1263;22696;-79
2022/05/29 08:19:29;;;;;;;7.80;3.00;;;;;;;14.82;50.97;100141.98;109170;1267;22886;-81
2022/05/29 08:22:01;;;;;;;7.70;2.70;;;;;;;14.77;50.90;100147.98;109334;1261;23602;-80
2022/05/29 08:30:52;;;;;;;;;;;;;;;;;;;;;
2022/05/29 08:34:04;;;;;;;8.80;2.60;;;;;;;14.69;51.20;100148.98;110797;1256;22785;-81
2022/05/29 08:36:40;;;;;;;7.30;2.40;;;;;;;14.73;51.01;100148.98;110547;1256;23024;-80
2022/05/29 08:39:11;;;;;;;7.60;2.30;;;;;;;14.76;50.85;100146.00;110730;1256;22072;-81
2022/05/29 08:41:46;;;;;;;7.50;2.90;;;;;;;14.82;51.13;100148.41;110264;1257;22903;-80
2022/05/29 08:44:29;;;;;;;7.60;3.10;;;;;;;14.89;51.32;100150.96;110089;1257;21956;-79
2022/05/29 08:47:02;;;;;;;11.00;3.10;;;;;;;15.01;51.63;100153.69;110397;1256;21980;-78
2022/05/29 08:49:48;;;;;;;6.00;3.40;;;;;;;15.10;51.20;100151.13;110538;1256;21962;-79
2022/05/29 08:53:03;;;;;;;12.90;4.30;;;;;;;15.17;51.14;100152.85;110293;1257;22033;-79
2022/05/29 08:55:56;;;;;;;5.40;2.90;;;;;;;15.27;50.86;100151.48;109690;1263;21988;-80
2022/05/29 08:58:55;;;;;;;9.10;4.00;;;;;;;15.33;50.52;100154.55;109908;1257;22130;-80
2022/05/29 09:01:46;;;;;;;7.00;3.90;;;;;;;15.38;49.99;100155.91;110358;1256;22264;-80
2022/05/29 09:04:36;;;;;;;9.50;4.30;;;;;;;15.39;50.06;100157.89;110261;1256;23030;-79
2022/05/29 09:07:09;;;;;;;6.60;2.50;;;;;;;15.37;49.91;100155.66;110501;1257;23089;-80
2022/05/29 09:09:56;;;;;;;6.90;3.20;;;;;;;15.39;50.00;100154.80;110425;1256;23021;-80
2022/05/29 09:12:46;;;;;;;7.00;3.10;;;;;;;15.44;49.99;100152.46;109326;1260;22029;-80
2022/05/29 09:15:45;;;;;;;9.10;4.20;;;;;;;15.48;49.85;100152.06;109676;1260;21978;-80
2022/05/29 09:18:21;;;;;;;8.30;3.60;;;;;;;15.50;49.65;100152.19;109820;1260;21986;-79
2022/05/29 09:21:03;;;;;;;5.60;2.60;;;;;;;15.49;49.43;100152.60;110143;1256;23024;-80
2022/05/29 09:23:40;;;;;;;;;;;;;;;15.53;49.52;100150.30;110379;1256;22862;-80
2022/05/29 09:26:17;;;;;;;5.90;2.40;;;;;;;15.49;49.44;100151.86;109581;1262;23609;-81
2022/05/29 09:28:49;;;;;;;8.20;4.30;;;;;;;15.52;49.61;100150.92;109556;1264;21985;-80
2022/05/29 09:31:26;;;;;;;9.20;4.30;;;;;;;15.60;49.44;100150.46;109463;1263;22048;-80
2022/05/29 09:34:00;;;;;;;8.30;4.50;;;;;;;15.68;49.56;100152.05;109244;1264;21975;-79
2022/05/29 09:37:02;;;;;;;19.80;3.70;;;;;;;15.73;49.17;100149.06;109563;1259;22034;-80
2022/05/29 09:39:37;;;;;;;10.80;3.20;;;;;;;15.79;48.99;100148.27;109475;1264;22703;-84
2022/05/29 09:42:21;;;;;;;12.60;3.20;;;;;;;15.88;48.87;100145.02;109454;1264;22014;-77
2022/05/29 09:45:15;;;;;;;7.40;2.50;;;;;;;15.98;48.84;100150.21;109775;1262;22913;-78
2022/05/29 09:50:46;;;;;;;7.90;2.60;;;;;;;16.21;48.42;100149.17;109790;1257;22563;-77
2022/05/29 09:53:40;;;;;;;7.90;2.40;;;;;;;16.25;47.84;100141.00;110364;1257;23039;-77
2022/05/29 09:56:10;;;;;;;6.10;2.20;;;;;;;16.31;47.93;100138.73;110051;1259;23581;-78
2022/05/29 09:58:54;;;;;;;4.10;2.10;;;;;;;16.44;48.10;100139.95;110281;1257;21989;-77
2022/05/29 10:01:38;;;;;;;5.40;2.30;;;;;;;16.67;47.84;100139.85;110311;1257;21966;-78
2022/05/29 10:04:13;;;;;;;13.40;5.20;;;;;;;16.93;48.12;100131.44;110298;1253;23516;-78
2022/05/29 10:06:47;;;;;;;4.30;2.50;;;;;;;17.52;49.10;100127.61;110313;1256;22150;-78
2022/05/29 10:09:21;;;;;;;6.90;1.90;;;;;;;18.16;47.92;100130.79;110452;1254;22769;-78
2022/05/29 10:12:13;;;;;;;7.00;2.70;;;;;;;18.74;46.31;100127.00;110391;1256;22034;-77
2022/05/29 10:14:45;;;;;;;7.50;2.90;;;;;;;19.26;44.79;100125.05;110298;1256;21936;-77
2022/05/29 10:17:37;;;;;;;7.60;2.40;;;;;;;19.64;43.49;100119.26;110069;1256;23021;-78
2022/05/29 10:20:24;;;;;;;5.90;2.50;;;;;;;19.91;41.68;100119.20;110238;1257;23873;-78
2022/05/29 10:22:55;;;;;;;5.00;2.00;;;;;;;20.13;41.21;100117.95;110410;1257;23682;-78
2022/05/29 10:25:30;;;;;;;7.70;3.00;;;;;;;20.20;40.22;100120.75;110591;1250;21963;-78
2022/05/29 10:28:04;;;;;;;3.90;2.20;;;;;;;20.07;39.39;100116.31;110936;1250;21966;-78
2022/05/29 10:30:44;;;;;;;5.20;2.60;;;;;;;19.82;38.82;100115.11;110777;1250;21974;-77
2022/05/29 10:33:24;;;;;;;4.50;2.60;;;;;;;19.59;39.46;100120.70;110893;1250;23590;-77
2022/05/29 10:36:19;;;;;;;8.90;2.20;;;;;;;19.38;39.44;100114.90;110687;1250;24387;-78
2022/05/29 10:39:05;;;;;;;4.40;2.10;;;;;;;19.19;39.66;100112.02;110826;1250;22038;-78
2022/05/29 10:41:42;;;;;;;4.30;1.70;;;;;;;19.14;40.25;100110.29;110776;1250;22754;-78
2022/05/29 10:44:44;;;;;;;6.20;2.30;;;;;;;18.99;39.48;100112.59;110768;1249;21971;-76
2022/05/29 10:47:27;;;;;;;5.30;2.00;;;;;;;18.70;39.60;100111.17;110865;1250;21960;-78
2022/05/29 10:50:17;;;;;;;5.50;2.10;;;;;;;18.48;39.93;100103.92;110952;1250;21966;-78
2022/05/29 10:53:31;;;;;;;6.30;2.20;;;;;;;18.24;40.11;100102.08;110995;1250;21972;-80
2022/05/29 10:56:44;;;;;;;5.20;2.20;;;;;;;17.98;40.36;100105.98;110988;1250;23026;-78
2022/05/29 10:59:27;;;;;;;5.60;1.70;;;;;;;17.79;40.96;100102.42;110756;1250;22611;-77
2022/05/29 11:05:23;;;;;;;4.90;2.10;;;;;;;17.77;41.65;100099.46;110810;1250;21974;-78
2022/05/29 11:08:28;;;;;;;8.10;2.50;;;;;;;17.94;42.14;100097.73;110947;1250;22006;-77
2022/05/29 11:11:09;;;;;;;6.10;1.80;;;;;;;18.21;42.49;100089.22;110857;1250;23707;-78
2022/05/29 11:14:06;;;;;;;14.50;11.50;;;;;;;18.45;42.38;100086.58;110762;1250;21957;-78
2022/05/29 11:17:15;;;;;;;7.50;2.90;;;;;;;18.65;41.45;100089.81;110767;1250;21972;-78
2022/05/29 11:19:47;;;;;;;5.60;2.20;;;;;;;18.73;40.58;100104.09;110996;1249;24416;-77
2022/05/29 11:23:02;;;;;;;6.50;2.40;;;;;;;18.68;39.79;100106.86;110946;1250;21961;-78
2022/05/29 11:25:42;;;;;;;3.10;1.90;;;;;;;18.48;39.34;100108.80;110859;1250;23028;-78
2022/05/29 11:28:48;;;;;;;6.90;3.50;;;;;;;18.48;39.59;100107.57;110842;1250;23817;-77
2022/05/29 11:31:55;;;;;;;6.90;1.80;;;;;;;18.62;38.98;100109.53;110880;1250;23687;-77
2022/05/29 11:34:55;;;;;;;4.60;1.40;;;;;;;18.60;38.55;100111.58;110913;1250;22423;-78
2022/05/29 11:38:12;;;;;;;4.70;1.40;;;;;;;18.51;38.32;100116.80;110926;1250;22082;-77
2022/05/29 11:40:56;;;;;;;5.20;1.50;;;;;;;18.46;38.37;100112.00;110671;1250;22966;-78
2022/05/29 11:43:49;;;;;;;3.20;1.50;;;;;;;18.42;38.09;100113.00;110833;1250;21963;-79
2022/05/29 11:52:17;;;;;;;3.80;1.30;;;;;;;18.05;38.60;100097.52;110869;1250;21960;-78
2022/05/29 11:54:55;;;;;;;4.40;1.90;;;;;;;18.00;38.52;100092.73;110897;1250;22289;-77
2022/05/29 11:58:07;;;;;;;4.30;1.60;;;;;;;17.97;38.74;100098.39;111025;1250;21960;-79
2022/05/29 12:00:39;;;;;;;4.40;1.30;;;;;;;17.91;38.67;100099.09;110876;1250;21966;-79
2022/05/29 12:03:36;;;;;;;4.90;2.30;;;;;;;17.86;38.66;100095.36;110986;1250;22021;-79
2022/05/29 12:06:35;;;;;;;5.50;2.10;;;;;;;17.79;38.85;100090.98;110961;1250;22022;-80
2022/05/29 12:09:20;;;;;;;4.90;1.90;;;;;;;17.80;39.20;100089.23;110936;1250;21956;-79
2022/05/29 12:12:17;;;;;;;8.00;2.00;;;;;;;17.81;39.10;100087.99;110921;1250;21959;-79
2022/05/29 12:14:58;;;;;;;5.30;1.80;;;;;;;17.81;39.25;100087.61;110627;1250;21971;-79
2022/05/29 12:17:40;;;;;;;7.90;2.00;;;;;;;17.83;39.01;100089.09;110775;1250;23671;-79
2022/05/29 12:20:20;;;;;;;4.00;1.80;;;;;;;17.79;38.64;100085.05;110787;1250;22374;-78
2022/05/29 12:22:57;;;;;;;7.90;2.40;;;;;;;17.73;38.48;100083.73;110592;1250;21968;-79
2022/05/29 12:25:42;;;;;;;6.20;1.90;;;;;;;17.64;38.87;100080.69;110726;1250;22006;-78
2022/05/29 12:28:45;;;;;;;5.70;1.90;;;;;;;17.57;39.11;100076.08;110725;1250;23093;-78
2022/05/29 12:31:26;;;;;;;5.50;1.90;;;;;;;17.47;39.04;100065.69;110940;1250;22033;-78
2022/05/29 12:33:56;;;;;;;5.40;1.90;;;;;;;17.46;39.18;100060.90;110887;1250;21990;-79
2022/05/29 12:36:34;;;;;;;4.20;1.70;;;;;;;17.55;39.39;100066.02;110856;1250;21960;-78
2022/05/29 12:39:16;;;;;;;5.40;1.80;;;;;;;17.69;39.41;100067.00;110850;1250;21995;-79
2022/05/29 12:42:45;;;;;;;3.90;1.40;;;;;;;17.84;39.12;100063.73;110891;1250;22002;-79
2022/05/29 12:45:33;;;;;;;6.60;2.00;;;;;;;17.94;38.72;100055.95;110167;1257;23078;-78
2022/05/29 12:48:43;;;;;;;2.60;1.20;;;;;;;17.94;38.14;100050.36;110276;1257;21991;-78
2022/05/29 12:51:40;;;;;;;3.70;1.50;;;;;;;17.79;37.23;100051.05;110247;1257;21995;-77
2022/05/29 12:54:46;;;;;;;5.80;1.90;;;;;;;17.65;37.06;100055.45;110244;1260;23673;-78
2022/05/29 12:57:47;;;;;;;6.60;1.70;;;;;;;17.66;37.66;100056.59;109828;1263;23608;-78
2022/05/29 13:01:21;;;;;;;4.60;2.00;;;;;;;17.70;37.63;100064.20;109584;1264;22699;-77
2022/05/29 13:04:28;;;;;;;4.00;1.70;;;;;;;17.73;37.64;100068.29;109717;1263;22759;-77
2022/05/29 13:07:21;;;;;;;3.10;1.40;;;;;;;17.78;37.62;100069.81;109266;1264;220206;-77